createdAt,value
2022-11-28T00:00:00.507Z,6.95
2022-11-28T00:00:13.052Z,7.05
2022-11-28T00:00:25.380Z,7.70
2022-11-28T00:00:37.481Z,8.02
2022-11-28T00:00:52.187Z,7.88
2022-11-28T00:01:06.598Z,7.93
2022-11-28T00:01:23.645Z,8.60
2022-11-28T00:01:37.619Z,7.68
2022-11-28T00:01:49.838Z,7.30
2022-11-28T00:02:01.938Z,7.53
2022-11-28T00:02:13.997Z,8.07
2022-11-28T00:02:26.237Z,7.88
2022-11-28T00:02:38.380Z,8.20
2022-11-28T00:02:50.616Z,8.27
2022-11-28T00:03:02.645Z,7.70
2022-11-28T00:03:14.971Z,7.60
2022-11-28T00:03:27.390Z,7.28
2022-11-28T00:03:39.787Z,7.45
2022-11-28T00:03:51.935Z,7.57
2022-11-28T00:04:06.045Z,7.32
2022-11-28T00:04:18.216Z,7.13
2022-11-28T00:04:30.302Z,7.18
2022-11-28T00:04:42.701Z,6.55
2022-11-28T00:04:54.930Z,6.72
2022-11-28T00:05:09.682Z,7.47
2022-11-28T00:05:21.713Z,7.20
2022-11-28T00:05:36.034Z,6.95
2022-11-28T00:05:48.610Z,7.47
2022-11-28T00:06:09.846Z,7.82
2022-11-28T00:06:22.703Z,8.30
2022-11-28T00:06:37.499Z,8.25
2022-11-28T00:06:50.941Z,7.22
2022-11-28T00:07:03.061Z,7.38
2022-11-28T00:07:15.260Z,8.88
2022-11-28T00:07:27.388Z,8.43
2022-11-28T00:07:39.807Z,8.25
2022-11-28T00:07:51.831Z,7.88
2022-11-28T00:08:04.410Z,8.07
2022-11-28T00:08:16.312Z,7.55
2022-11-28T00:08:28.233Z,7.65
2022-11-28T00:08:40.344Z,7.63
2022-11-28T00:08:52.729Z,7.70
2022-11-28T00:09:04.717Z,7.95
2022-11-28T00:09:19.025Z,8.48
2022-11-28T00:09:31.150Z,8.77
2022-11-28T00:09:43.057Z,8.30
2022-11-28T00:09:55.380Z,7.75
2022-11-28T00:10:07.948Z,7.43
2022-11-28T00:10:20.226Z,7.55
2022-11-28T00:10:32.212Z,7.82
2022-11-28T00:10:44.552Z,7.85
2022-11-28T00:10:56.500Z,7.55
2022-11-28T00:11:12.354Z,7.13
2022-11-28T00:11:24.388Z,7.35
2022-11-28T00:11:36.367Z,7.20
2022-11-28T00:11:49.283Z,7.28
2022-11-28T00:12:01.241Z,7.68
2022-11-28T00:12:13.561Z,7.28
2022-11-28T00:12:26.249Z,6.93
2022-11-28T00:12:40.039Z,6.93
2022-11-28T00:12:51.967Z,6.97
2022-11-28T00:13:04.192Z,9.38
2022-11-28T00:13:16.123Z,9.57
2022-11-28T00:13:28.622Z,9.48
2022-11-28T00:13:41.428Z,7.78
2022-11-28T00:13:54.258Z,7.78
2022-11-28T00:14:07.071Z,7.50
2022-11-28T00:14:19.643Z,7.15
2022-11-28T00:14:31.556Z,7.78
2022-11-28T00:14:43.622Z,8.20
2022-11-28T00:14:55.842Z,7.72
2022-11-28T00:15:08.376Z,7.68
2022-11-28T00:15:20.352Z,7.78
2022-11-28T00:15:32.670Z,7.63
2022-11-28T00:15:44.819Z,7.95
2022-11-28T00:16:02.163Z,8.25
2022-11-28T00:16:17.856Z,7.95
2022-11-28T00:16:29.864Z,7.72
2022-11-28T00:16:42.217Z,7.72
2022-11-28T00:16:54.139Z,7.10
2022-11-28T00:17:06.245Z,7.28
2022-11-28T00:17:18.118Z,7.55
2022-11-28T00:17:30.274Z,7.32
2022-11-28T00:17:42.228Z,8.13
2022-11-28T00:17:54.649Z,7.85
2022-11-28T00:18:06.583Z,7.93
2022-11-28T00:18:18.880Z,7.85
2022-11-28T00:18:31.305Z,7.88
2022-11-28T00:18:44.028Z,7.85
2022-11-28T00:18:56.023Z,8.05
2022-11-28T00:19:08.738Z,7.50
2022-11-28T00:19:20.616Z,8.07
2022-11-28T00:19:32.749Z,8.73
2022-11-28T00:19:44.647Z,8.63
2022-11-28T00:19:57.321Z,7.57
2022-11-28T00:20:09.405Z,7.35
2022-11-28T00:20:21.702Z,7.68
2022-11-28T00:20:33.684Z,8.10
2022-11-28T00:20:45.752Z,8.05
2022-11-28T00:21:06.402Z,8.07
2022-11-28T00:21:19.025Z,7.93
2022-11-28T00:21:31.609Z,7.75
2022-11-28T00:21:43.807Z,7.68
2022-11-28T00:21:55.740Z,7.88
2022-11-28T00:22:08.136Z,8.75
2022-11-28T00:22:20.166Z,8.93
2022-11-28T00:22:32.051Z,8.10
2022-11-28T00:22:43.928Z,8.45
2022-11-28T00:22:56.016Z,9.02
2022-11-28T00:23:07.983Z,9.30
2022-11-28T00:23:19.896Z,8.32
2022-11-28T00:23:33.094Z,8.50
2022-11-28T00:23:47.503Z,8.65
2022-11-28T00:24:00.299Z,7.82
2022-11-28T00:24:12.342Z,7.88
2022-11-28T00:24:26.147Z,7.85
2022-11-28T00:24:39.651Z,7.50
2022-11-28T00:24:51.938Z,7.32
2022-11-28T00:25:04.136Z,7.68
2022-11-28T00:25:16.380Z,7.18
2022-11-28T00:25:28.256Z,7.38
2022-11-28T00:25:40.156Z,7.07
2022-11-28T00:25:59.159Z,7.18
2022-11-28T00:26:14.562Z,7.57
2022-11-28T00:26:29.878Z,7.32
2022-11-28T00:26:42.518Z,7.13
2022-11-28T00:26:54.499Z,7.30
2022-11-28T00:27:06.585Z,8.05
2022-11-28T00:27:18.479Z,8.50
2022-11-28T00:27:30.469Z,7.72
2022-11-28T00:27:42.385Z,8.35
2022-11-28T00:27:54.289Z,8.40
2022-11-28T00:28:06.184Z,8.90
2022-11-28T00:28:18.116Z,7.97
2022-11-28T00:28:30.028Z,7.40
2022-11-28T00:28:42.373Z,6.75
2022-11-28T00:28:55.564Z,7.00
2022-11-28T00:29:08.456Z,7.13
2022-11-28T00:29:20.408Z,7.25
2022-11-28T00:29:32.322Z,7.45
2022-11-28T00:29:44.375Z,8.02
2022-11-28T00:29:56.873Z,8.23
2022-11-28T00:30:09.402Z,7.90
2022-11-28T00:30:21.354Z,9.00
2022-11-28T00:30:37.365Z,8.80
2022-11-28T00:30:49.482Z,8.55
2022-11-28T00:31:01.839Z,8.45
2022-11-28T00:31:20.035Z,8.35
2022-11-28T00:31:42.156Z,8.02
2022-11-28T00:31:55.070Z,7.57
2022-11-28T00:32:07.189Z,7.75
2022-11-28T00:32:19.307Z,7.75
2022-11-28T00:32:31.256Z,10.15
2022-11-28T00:32:43.325Z,9.70
2022-11-28T00:32:55.272Z,9.05
2022-11-28T00:33:07.192Z,8.25
2022-11-28T00:33:19.472Z,7.97
2022-11-28T00:33:33.384Z,7.22
2022-11-28T00:33:46.505Z,8.52
2022-11-28T00:33:58.837Z,8.70
2022-11-28T00:34:13.022Z,8.55
2022-11-28T00:34:25.063Z,8.27
2022-11-28T00:34:37.891Z,8.23
2022-11-28T00:34:49.832Z,8.73
2022-11-28T00:35:01.734Z,8.65
2022-11-28T00:35:14.308Z,7.60
2022-11-28T00:35:26.217Z,8.05
2022-11-28T00:35:38.115Z,7.53
2022-11-28T00:35:50.344Z,7.78
2022-11-28T00:36:04.204Z,6.93
2022-11-28T00:36:17.218Z,6.93
2022-11-28T00:36:30.838Z,7.32
2022-11-28T00:36:45.232Z,7.80
2022-11-28T00:36:57.432Z,10.18
2022-11-28T00:37:09.407Z,10.57
2022-11-28T00:37:21.311Z,9.32
2022-11-28T00:37:33.358Z,7.60
2022-11-28T00:37:45.435Z,7.95
2022-11-28T00:37:57.293Z,8.27
2022-11-28T00:38:09.196Z,8.55
2022-11-28T00:38:21.092Z,8.10
2022-11-28T00:38:33.639Z,8.95
2022-11-28T00:38:45.944Z,9.18
2022-11-28T00:38:58.091Z,8.35
2022-11-28T00:39:10.015Z,7.97
2022-11-28T00:39:23.086Z,9.95
2022-11-28T00:39:35.000Z,10.48
2022-11-28T00:39:47.405Z,10.75
2022-11-28T00:39:59.318Z,9.57
2022-11-28T00:40:11.607Z,8.85
2022-11-28T00:40:23.483Z,8.70
2022-11-28T00:40:35.551Z,8.30
2022-11-28T00:40:47.696Z,7.93
2022-11-28T00:41:04.308Z,8.48
2022-11-28T00:41:19.832Z,8.98
2022-11-28T00:41:34.917Z,8.65
2022-11-28T00:41:46.884Z,8.20
2022-11-28T00:41:58.917Z,8.05
2022-11-28T00:42:10.870Z,7.95
2022-11-28T00:42:22.773Z,8.23
2022-11-28T00:42:34.685Z,8.73
2022-11-28T00:42:46.609Z,8.45
2022-11-28T00:42:59.032Z,8.20
2022-11-28T00:43:12.786Z,7.80
2022-11-28T00:43:24.661Z,7.78
2022-11-28T00:43:37.322Z,8.35
2022-11-28T00:43:50.949Z,8.65
2022-11-28T00:44:02.854Z,8.20
2022-11-28T00:44:14.993Z,8.20
2022-11-28T00:44:26.968Z,7.47
2022-11-28T00:44:38.872Z,7.22
2022-11-28T00:44:50.864Z,6.60
2022-11-28T00:45:02.988Z,6.72
2022-11-28T00:45:15.006Z,7.32
2022-11-28T00:45:27.474Z,7.20
2022-11-28T00:45:39.493Z,7.93
2022-11-28T00:45:51.883Z,8.02
2022-11-28T00:46:04.527Z,8.00
2022-11-28T00:46:17.699Z,7.88
2022-11-28T00:46:29.985Z,8.18
2022-11-28T00:46:42.467Z,8.57
2022-11-28T00:46:54.426Z,8.68
2022-11-28T00:47:06.608Z,8.45
2022-11-28T00:47:18.594Z,8.27
2022-11-28T00:47:30.619Z,8.57
2022-11-28T00:47:42.523Z,8.32
2022-11-28T00:47:54.618Z,8.40
2022-11-28T00:48:06.474Z,7.90
2022-11-28T00:48:18.496Z,8.18
2022-11-28T00:48:31.625Z,7.93
2022-11-28T00:48:43.776Z,8.02
2022-11-28T00:48:57.885Z,8.85
2022-11-28T00:49:09.848Z,8.53
2022-11-28T00:49:21.724Z,8.00
2022-11-28T00:49:33.699Z,7.78
2022-11-28T00:49:45.632Z,9.05
2022-11-28T00:49:57.530Z,9.30
2022-11-28T00:50:09.670Z,8.70
2022-11-28T00:50:21.623Z,6.93
2022-11-28T00:50:33.490Z,7.82
2022-11-28T00:50:45.387Z,8.52
2022-11-28T00:51:11.082Z,8.88
2022-11-28T00:51:26.405Z,8.07
2022-11-28T00:51:38.509Z,7.68
2022-11-28T00:51:50.460Z,7.78
2022-11-28T00:52:02.376Z,8.23
2022-11-28T00:52:14.277Z,7.90
2022-11-28T00:52:26.190Z,7.88
2022-11-28T00:52:38.364Z,7.63
2022-11-28T00:52:50.393Z,7.68
2022-11-28T00:53:02.411Z,7.93
2022-11-28T00:53:14.395Z,7.90
2022-11-28T00:53:26.583Z,7.40
2022-11-28T00:53:42.176Z,7.43
2022-11-28T00:53:55.913Z,8.55
2022-11-28T00:54:08.272Z,9.20
2022-11-28T00:54:20.160Z,8.60
2022-11-28T00:54:32.353Z,7.45
2022-11-28T00:54:44.374Z,7.18
2022-11-28T00:54:56.756Z,8.00
2022-11-28T00:55:08.951Z,8.05
2022-11-28T00:55:21.200Z,9.23
2022-11-28T00:55:33.071Z,9.77
2022-11-28T00:55:45.109Z,9.52
2022-11-28T00:55:57.184Z,7.83
2022-11-28T00:56:14.170Z,7.65
2022-11-28T00:56:30.782Z,7.70
2022-11-28T00:56:43.139Z,8.13
2022-11-28T00:56:55.099Z,8.27
2022-11-28T00:57:07.284Z,8.23
2022-11-28T00:57:19.197Z,8.93
2022-11-28T00:57:31.887Z,8.80
2022-11-28T00:57:43.868Z,7.53
2022-11-28T00:57:56.157Z,7.35
2022-11-28T00:58:08.343Z,9.38
2022-11-28T00:58:20.299Z,10.05
2022-11-28T00:58:36.475Z,9.77
2022-11-28T00:58:49.634Z,8.13
2022-11-28T00:59:01.908Z,8.50
2022-11-28T00:59:13.952Z,8.32
2022-11-28T00:59:25.849Z,8.18
2022-11-28T00:59:38.330Z,7.78
2022-11-28T00:59:50.273Z,7.32
2022-11-28T01:00:02.275Z,7.90
2022-11-28T01:00:14.805Z,8.35
2022-11-28T01:00:26.727Z,8.70
2022-11-28T01:00:39.230Z,8.23
2022-11-28T01:00:51.220Z,8.38
2022-11-28T01:01:27.589Z,7.72
2022-11-28T01:01:43.744Z,8.13
2022-11-28T01:01:55.890Z,8.38
2022-11-28T01:02:07.897Z,8.38
2022-11-28T01:02:19.860Z,8.18
2022-11-28T01:02:32.014Z,8.35
2022-11-28T01:02:43.953Z,8.65
2022-11-28T01:02:56.924Z,8.40
2022-11-28T01:03:08.851Z,8.02
2022-11-28T01:03:21.042Z,7.55
2022-11-28T01:03:32.939Z,8.07
2022-11-28T01:03:46.388Z,8.30
2022-11-28T01:04:00.880Z,8.50
2022-11-28T01:04:15.188Z,8.18
2022-11-28T01:04:27.802Z,8.10
2022-11-28T01:04:39.851Z,7.97
2022-11-28T01:04:52.310Z,9.55
2022-11-28T01:05:04.588Z,9.60
2022-11-28T01:05:16.703Z,8.27
2022-11-28T01:05:28.612Z,7.80
2022-11-28T01:05:43.151Z,7.40
2022-11-28T01:05:55.163Z,7.93
2022-11-28T01:06:08.324Z,7.93
2022-11-28T01:06:40.943Z,8.35
2022-11-28T01:06:53.432Z,8.40
2022-11-28T01:07:05.375Z,8.10
2022-11-28T01:07:17.365Z,8.05
2022-11-28T01:07:29.398Z,8.90
2022-11-28T01:07:42.468Z,8.80
2022-11-28T01:07:54.630Z,8.40
2022-11-28T01:08:06.534Z,7.82
2022-11-28T01:08:18.422Z,7.28
2022-11-28T01:08:30.504Z,7.38
2022-11-28T01:08:42.450Z,8.13
2022-11-28T01:08:55.459Z,8.02
2022-11-28T01:09:13.867Z,8.48
2022-11-28T01:09:26.049Z,8.40
2022-11-28T01:09:37.943Z,8.95
2022-11-28T01:09:49.950Z,9.05
2022-11-28T01:10:01.908Z,8.52
2022-11-28T01:10:14.462Z,7.85
2022-11-28T01:10:27.179Z,8.77
2022-11-28T01:10:42.197Z,9.15
2022-11-28T01:10:54.274Z,8.27
2022-11-28T01:11:13.515Z,7.65
2022-11-28T01:11:25.817Z,8.52
2022-11-28T01:11:39.877Z,8.80
2022-11-28T01:11:53.464Z,8.07
2022-11-28T01:12:05.742Z,7.57
2022-11-28T01:12:17.698Z,7.63
2022-11-28T01:12:29.631Z,8.30
2022-11-28T01:12:41.551Z,8.23
2022-11-28T01:12:53.536Z,8.32
2022-11-28T01:13:05.654Z,8.10
2022-11-28T01:13:17.580Z,7.88
2022-11-28T01:13:29.809Z,8.80
2022-11-28T01:13:41.789Z,9.73
2022-11-28T01:13:58.382Z,10.82
2022-11-28T01:14:12.425Z,10.00
2022-11-28T01:14:26.828Z,8.60
2022-11-28T01:14:38.713Z,8.07
2022-11-28T01:14:51.019Z,8.32
2022-11-28T01:15:04.929Z,9.07
2022-11-28T01:15:16.894Z,8.60
2022-11-28T01:15:28.830Z,8.18
2022-11-28T01:15:41.890Z,8.40
2022-11-28T01:15:54.266Z,8.70
2022-11-28T01:16:06.904Z,8.85
2022-11-28T01:16:18.946Z,9.23
2022-11-28T01:16:31.041Z,9.23
2022-11-28T01:16:43.059Z,9.40
2022-11-28T01:16:55.472Z,9.02
2022-11-28T01:17:07.404Z,7.82
2022-11-28T01:17:19.300Z,7.53
2022-11-28T01:17:31.196Z,7.68
2022-11-28T01:17:43.096Z,8.40
2022-11-28T01:17:55.025Z,8.32
2022-11-28T01:18:07.071Z,8.50
2022-11-28T01:18:18.977Z,7.93
2022-11-28T01:18:30.912Z,8.23
2022-11-28T01:18:42.896Z,7.88
2022-11-28T01:18:55.088Z,8.55
2022-11-28T01:19:07.080Z,8.80
2022-11-28T01:19:19.252Z,9.20
2022-11-28T01:19:31.269Z,8.50
2022-11-28T01:19:43.175Z,8.20
2022-11-28T01:19:55.498Z,8.40
2022-11-28T01:20:09.122Z,8.35
2022-11-28T01:20:21.035Z,8.10
2022-11-28T01:20:32.995Z,8.00
2022-11-28T01:20:45.060Z,9.05
2022-11-28T01:20:57.009Z,11.63
2022-11-28T01:21:09.761Z,11.07
2022-11-28T01:21:21.865Z,10.32
2022-11-28T01:21:34.867Z,9.20
2022-11-28T01:21:46.971Z,9.50
2022-11-28T01:21:58.960Z,9.15
2022-11-28T01:22:11.058Z,8.82
2022-11-28T01:22:22.958Z,10.60
2022-11-28T01:22:35.038Z,10.95
2022-11-28T01:22:46.978Z,10.20
2022-11-28T01:22:59.061Z,8.75
2022-11-28T01:23:11.273Z,10.13
2022-11-28T01:23:23.181Z,10.30
2022-11-28T01:23:35.882Z,9.90
2022-11-28T01:23:48.349Z,9.65
2022-11-28T01:24:00.331Z,9.65
2022-11-28T01:24:12.543Z,9.48
2022-11-28T01:24:24.416Z,8.82
2022-11-28T01:24:36.343Z,8.88
2022-11-28T01:24:48.267Z,8.68
2022-11-28T01:25:00.303Z,8.48
2022-11-28T01:25:12.195Z,8.82
2022-11-28T01:25:24.276Z,9.23
2022-11-28T01:25:36.351Z,9.88
2022-11-28T01:25:48.241Z,8.98
2022-11-28T01:26:01.225Z,9.10
2022-11-28T01:26:22.765Z,9.43
2022-11-28T01:26:34.956Z,9.43
2022-11-28T01:26:46.882Z,9.25
2022-11-28T01:26:58.900Z,8.82
2022-11-28T01:27:11.876Z,8.50
2022-11-28T01:27:23.830Z,10.60
2022-11-28T01:27:35.774Z,10.10
2022-11-28T01:27:47.788Z,10.13
2022-11-28T01:27:59.771Z,8.55
2022-11-28T01:28:11.720Z,8.77
2022-11-28T01:28:23.749Z,8.52
2022-11-28T01:28:35.879Z,8.88
2022-11-28T01:28:48.376Z,8.77
2022-11-28T01:29:01.032Z,9.27
2022-11-28T01:29:13.097Z,9.07
2022-11-28T01:29:25.523Z,8.50
2022-11-28T01:29:37.446Z,8.35
2022-11-28T01:29:49.660Z,8.27
2022-11-28T01:30:01.775Z,7.90
2022-11-28T01:30:13.815Z,8.02
2022-11-28T01:30:25.956Z,8.70
2022-11-28T01:30:37.888Z,9.77
2022-11-28T01:30:50.000Z,9.75
2022-11-28T01:31:07.367Z,9.98
2022-11-28T01:31:22.408Z,10.02
2022-11-28T01:31:35.076Z,8.32
2022-11-28T01:31:47.249Z,7.85
2022-11-28T01:31:59.334Z,8.23
2022-11-28T01:32:11.297Z,9.25
2022-11-28T01:32:23.413Z,9.70
2022-11-28T01:32:35.329Z,9.07
2022-11-28T01:32:47.273Z,8.10
2022-11-28T01:32:59.195Z,8.27
2022-11-28T01:33:11.080Z,8.48
2022-11-28T01:33:22.936Z,8.60
2022-11-28T01:33:35.341Z,8.77
2022-11-28T01:33:47.850Z,9.43
2022-11-28T01:34:00.721Z,9.45
2022-11-28T01:34:12.596Z,8.38
2022-11-28T01:34:24.717Z,8.07
2022-11-28T01:34:36.825Z,8.45
2022-11-28T01:34:49.123Z,8.68
2022-11-28T01:35:01.051Z,9.25
2022-11-28T01:35:13.477Z,9.93
2022-11-28T01:35:25.372Z,9.50
2022-11-28T01:35:37.747Z,8.95
2022-11-28T01:35:57.091Z,8.73
2022-11-28T01:36:10.974Z,8.77
2022-11-28T01:36:23.596Z,8.43
2022-11-28T01:36:35.958Z,8.77
2022-11-28T01:36:47.879Z,9.32
2022-11-28T01:37:00.386Z,9.02
2022-11-28T01:37:12.302Z,8.82
2022-11-28T01:37:24.610Z,8.68
2022-11-28T01:37:36.633Z,8.35
2022-11-28T01:37:48.771Z,8.82
2022-11-28T01:38:00.714Z,8.50
2022-11-28T01:38:12.663Z,8.50
2022-11-28T01:38:24.995Z,9.45
2022-11-28T01:38:37.045Z,10.02
2022-11-28T01:38:49.737Z,10.45
2022-11-28T01:39:01.640Z,10.45
2022-11-28T01:39:15.998Z,9.82
2022-11-28T01:39:27.917Z,9.43
2022-11-28T01:39:40.258Z,8.80
2022-11-28T01:39:52.214Z,8.70
2022-11-28T01:40:05.159Z,8.20
2022-11-28T01:40:17.314Z,8.30
2022-11-28T01:40:29.396Z,8.25
2022-11-28T01:40:46.958Z,8.05
2022-11-28T01:40:58.936Z,7.68
2022-11-28T01:41:12.855Z,8.57
2022-11-28T01:41:26.927Z,9.40
2022-11-28T01:41:40.390Z,9.73
2022-11-28T01:41:52.347Z,9.13
2022-11-28T01:42:04.259Z,9.20
2022-11-28T01:42:18.428Z,9.30
2022-11-28T01:42:30.481Z,10.88
2022-11-28T01:42:42.380Z,9.98
2022-11-28T01:42:54.330Z,9.25
2022-11-28T01:43:06.351Z,9.48
2022-11-28T01:43:18.918Z,9.82
2022-11-28T01:43:31.228Z,8.98
2022-11-28T01:44:15.560Z,9.20
2022-11-28T01:44:27.586Z,9.50
2022-11-28T01:44:42.289Z,8.98
2022-11-28T01:44:54.250Z,8.38
2022-11-28T01:45:18.610Z,8.38
2022-11-28T01:45:33.477Z,8.60
2022-11-28T01:45:45.546Z,8.85
2022-11-28T01:45:57.525Z,8.73
2022-11-28T01:46:09.736Z,8.95
2022-11-28T01:46:21.861Z,9.18
2022-11-28T01:46:35.893Z,9.57
2022-11-28T01:46:47.932Z,9.00
2022-11-28T01:46:59.899Z,8.80
2022-11-28T01:47:11.930Z,8.73
2022-11-28T01:47:29.750Z,8.93
2022-11-28T01:47:42.511Z,10.32
2022-11-28T01:47:58.656Z,9.93
2022-11-28T01:48:20.898Z,8.60
2022-11-28T01:48:37.914Z,9.52
2022-11-28T01:48:51.174Z,10.73
2022-11-28T01:49:09.986Z,10.75
2022-11-28T01:49:29.368Z,9.40
2022-11-28T01:49:42.336Z,9.10
2022-11-28T01:49:55.467Z,8.57
2022-11-28T01:50:08.640Z,8.73
2022-11-28T01:50:22.377Z,8.43
2022-11-28T01:50:36.099Z,8.88
2022-11-28T01:50:52.708Z,9.38
2022-11-28T01:51:08.809Z,9.38
2022-11-28T01:51:21.052Z,8.82
2022-11-28T01:51:34.319Z,9.40
2022-11-28T01:51:50.929Z,9.25
2022-11-28T01:52:09.774Z,8.27
2022-11-28T01:52:23.331Z,9.93
2022-11-28T01:52:38.562Z,9.60
2022-11-28T01:52:59.954Z,9.32
2022-11-28T01:53:12.917Z,9.60
2022-11-28T01:53:29.391Z,9.98
2022-11-28T01:53:45.586Z,9.25
2022-11-28T01:53:59.121Z,9.80
2022-11-28T01:54:12.198Z,10.02
2022-11-28T01:54:26.356Z,8.98
2022-11-28T01:54:41.133Z,8.95
2022-11-28T01:54:58.903Z,9.30
2022-11-28T01:55:13.416Z,8.32
2022-11-28T01:55:28.783Z,9.45
2022-11-28T01:55:48.635Z,10.18
2022-11-28T01:56:08.569Z,9.43
2022-11-28T01:56:24.799Z,8.18
2022-11-28T01:56:55.057Z,8.10
2022-11-28T01:57:11.741Z,8.43
2022-11-28T01:57:25.357Z,8.55
2022-11-28T01:57:37.323Z,9.45
2022-11-28T01:57:49.526Z,9.27
2022-11-28T01:58:01.625Z,8.90
2022-11-28T01:58:14.147Z,8.27
2022-11-28T01:58:27.212Z,8.18
2022-11-28T01:58:45.031Z,8.73
2022-11-28T01:59:04.509Z,10.40
2022-11-28T01:59:18.876Z,9.13
2022-11-28T01:59:35.420Z,8.52
2022-11-28T01:59:54.363Z,8.52
2022-11-28T02:00:16.587Z,8.47
2022-11-28T02:00:28.622Z,8.55
2022-11-28T02:00:40.549Z,8.40
2022-11-28T02:00:53.391Z,8.20
2022-11-28T02:01:07.758Z,8.10
2022-11-28T02:01:21.546Z,9.13
2022-11-28T02:01:33.613Z,8.98
2022-11-28T02:01:46.413Z,8.70
2022-11-28T02:01:58.477Z,8.73
2022-11-28T02:02:18.281Z,8.95
2022-11-28T02:02:38.638Z,8.82
2022-11-28T02:03:00.548Z,8.98
2022-11-28T02:03:25.946Z,8.35
2022-11-28T02:03:46.834Z,8.80
2022-11-28T02:03:59.392Z,8.95
2022-11-28T02:04:14.156Z,8.68
2022-11-28T02:04:27.891Z,9.27
2022-11-28T02:04:40.350Z,9.57
2022-11-28T02:04:53.463Z,9.25
2022-11-28T02:05:06.126Z,8.93
2022-11-28T02:05:20.915Z,10.27
2022-11-28T02:05:33.440Z,11.38
2022-11-28T02:05:45.956Z,10.13
2022-11-28T02:05:58.152Z,10.07
2022-11-28T02:06:12.828Z,9.85
2022-11-28T02:06:26.142Z,8.70
2022-11-28T02:06:38.016Z,7.97
2022-11-28T02:06:49.947Z,8.27
2022-11-28T02:07:01.972Z,8.52
2022-11-28T02:07:14.363Z,9.20
2022-11-28T02:07:26.957Z,8.90
2022-11-28T02:07:39.112Z,7.85
2022-11-28T02:07:51.922Z,8.10
2022-11-28T02:08:04.372Z,8.00
2022-11-28T02:08:16.334Z,7.95
2022-11-28T02:08:32.939Z,8.15
2022-11-28T02:08:45.083Z,8.65
2022-11-28T02:08:57.083Z,9.10
2022-11-28T02:09:13.662Z,9.27
2022-11-28T02:09:25.657Z,9.40
2022-11-28T02:09:37.701Z,9.90
2022-11-28T02:09:49.618Z,9.98
2022-11-28T02:10:06.045Z,9.85
2022-11-28T02:10:27.145Z,8.57
2022-11-28T02:10:51.708Z,9.05
2022-11-28T02:11:14.204Z,10.13
2022-11-28T02:11:49.853Z,11.27
2022-11-28T02:12:22.960Z,7.68
2022-11-28T02:12:40.774Z,9.05
2022-11-28T02:13:27.411Z,9.27
2022-11-28T02:14:08.338Z,8.70
2022-11-28T02:14:26.114Z,8.65
2022-11-28T02:14:59.485Z,11.05
2022-11-28T02:15:22.546Z,7.95
2022-11-28T02:16:18.627Z,8.38
2022-11-28T02:16:49.085Z,8.88
2022-11-28T02:17:38.459Z,10.45
2022-11-28T02:18:05.143Z,10.30
2022-11-28T02:18:38.711Z,8.80
2022-11-28T02:19:18.352Z,8.77
2022-11-28T02:20:04.257Z,8.95
2022-11-28T02:20:53.515Z,8.50
2022-11-28T02:21:22.996Z,9.68
2022-11-28T02:21:58.279Z,8.40
2022-11-28T02:22:41.472Z,8.20
2022-11-28T02:22:59.300Z,8.20
2022-11-28T02:23:21.749Z,7.95
2022-11-28T02:24:22.901Z,8.25
2022-11-28T02:24:59.927Z,8.35
2022-11-28T02:25:15.817Z,8.13
2022-11-28T02:25:27.671Z,8.27
2022-11-28T02:25:48.305Z,8.77
2022-11-28T02:26:46.123Z,8.68
2022-11-28T02:27:19.593Z,9.77
2022-11-28T02:27:40.263Z,9.30
2022-11-28T02:28:10.939Z,9.80
2022-11-28T02:28:34.087Z,8.80
2022-11-28T02:28:48.812Z,9.27
2022-11-28T02:29:19.822Z,9.27
2022-11-28T02:30:02.899Z,9.00
2022-11-28T02:30:19.879Z,8.60
2022-11-28T02:31:06.608Z,8.43
2022-11-28T02:31:39.789Z,9.55
2022-11-28T02:31:57.128Z,9.95
2022-11-28T02:32:18.894Z,10.23
2022-11-28T02:33:22.686Z,8.45
2022-11-28T02:33:39.827Z,8.95
2022-11-28T02:33:57.449Z,8.18
2022-11-28T02:34:18.674Z,8.32
2022-11-28T02:35:04.249Z,8.48
2022-11-28T02:35:49.473Z,8.88
2022-11-28T02:36:25.616Z,9.85
2022-11-28T02:37:07.215Z,9.43
2022-11-28T02:37:43.813Z,8.48
2022-11-28T02:38:04.527Z,8.95
2022-11-28T02:38:23.000Z,8.85
2022-11-28T02:38:56.458Z,8.70
2022-11-28T02:39:25.049Z,9.30
2022-11-28T02:39:52.770Z,8.60
2022-11-28T02:40:07.559Z,8.50
2022-11-28T02:40:26.312Z,8.00
2022-11-28T02:41:06.633Z,9.60
2022-11-28T02:41:45.567Z,8.60
2022-11-28T02:42:18.247Z,8.63
2022-11-28T02:42:45.121Z,8.95
2022-11-28T02:43:18.955Z,8.60
2022-11-28T02:43:43.481Z,8.00
2022-11-28T02:44:04.686Z,8.75
2022-11-28T02:44:18.913Z,8.15
2022-11-28T02:44:41.703Z,8.18
2022-11-28T02:45:06.441Z,8.40
2022-11-28T02:45:27.463Z,8.15
2022-11-28T02:45:57.891Z,10.38
2022-11-28T02:46:32.035Z,7.50
2022-11-28T02:46:59.133Z,8.75
2022-11-28T02:47:32.267Z,10.43
2022-11-28T02:47:56.381Z,7.72
2022-11-28T02:48:24.407Z,8.57
2022-11-28T02:48:42.987Z,8.15
2022-11-28T02:49:34.166Z,8.02
2022-11-28T02:50:13.220Z,8.32
2022-11-28T02:50:31.737Z,8.43
2022-11-28T02:50:56.331Z,8.95
2022-11-28T02:51:58.133Z,9.65
2022-11-28T02:52:15.559Z,8.77
2022-11-28T02:52:41.759Z,9.55
2022-11-28T02:52:59.456Z,7.65
2022-11-28T02:53:20.011Z,8.98
2022-11-28T02:53:34.012Z,9.05
2022-11-28T02:53:48.789Z,9.48
2022-11-28T02:54:03.705Z,9.30
2022-11-28T02:54:18.485Z,8.35
2022-11-28T02:54:31.749Z,8.02
2022-11-28T02:54:44.399Z,8.35
2022-11-28T02:54:57.111Z,8.57
2022-11-28T02:55:09.538Z,9.82
2022-11-28T02:55:22.815Z,10.25
2022-11-28T02:55:39.374Z,10.13
2022-11-28T02:55:52.896Z,9.57
2022-11-28T02:56:05.417Z,9.23
2022-11-28T02:56:17.390Z,8.73
2022-11-28T02:56:29.374Z,8.68
2022-11-28T02:56:52.185Z,8.75
2022-11-28T02:57:04.252Z,9.13
2022-11-28T02:57:16.137Z,9.05
2022-11-28T02:57:38.808Z,8.70
2022-11-28T02:57:53.618Z,8.68
2022-11-28T02:58:05.555Z,9.18
2022-11-28T02:58:18.653Z,9.68
2022-11-28T02:58:30.601Z,9.27
2022-11-28T02:58:42.483Z,9.13
2022-11-28T02:58:54.914Z,9.20
2022-11-28T02:59:31.073Z,8.98
2022-11-28T02:59:42.992Z,8.88
2022-11-28T02:59:55.485Z,8.55
2022-11-28T03:00:23.039Z,8.55
2022-11-28T03:00:37.518Z,8.98
2022-11-28T03:00:51.464Z,8.80
2022-11-28T03:01:04.765Z,8.60
2022-11-28T03:01:24.436Z,8.30
2022-11-28T03:01:38.635Z,9.82
2022-11-28T03:01:50.592Z,9.23
2022-11-28T03:02:04.523Z,10.82
2022-11-28T03:02:24.667Z,11.30
2022-11-28T03:02:37.052Z,8.77
2022-11-28T03:03:08.974Z,8.65
2022-11-28T03:03:36.363Z,8.82
2022-11-28T03:04:00.173Z,8.48
2022-11-28T03:04:30.492Z,8.07
2022-11-28T03:05:08.313Z,9.45
2022-11-28T03:05:47.170Z,9.60
2022-11-28T03:06:12.273Z,10.07
2022-11-28T03:06:51.420Z,8.68
2022-11-28T03:07:21.087Z,9.70
2022-11-28T03:07:56.182Z,8.73
2022-11-28T03:08:35.853Z,9.45
2022-11-28T03:09:17.970Z,9.88
2022-11-28T03:09:57.276Z,9.02
2022-11-28T03:10:48.360Z,9.02
2022-11-28T03:11:31.002Z,9.63
2022-11-28T03:12:01.264Z,8.40
2022-11-28T03:12:38.635Z,9.73
2022-11-28T03:13:01.296Z,10.50
2022-11-28T03:13:27.742Z,8.38
2022-11-28T03:13:54.335Z,9.38
2022-11-28T03:14:14.562Z,8.80
2022-11-28T03:14:45.153Z,9.20
2022-11-28T03:15:00.913Z,8.93
2022-11-28T03:15:19.034Z,9.55
2022-11-28T03:15:59.928Z,9.05
2022-11-28T03:16:29.272Z,9.43
2022-11-28T03:17:14.939Z,8.32
2022-11-28T03:17:52.177Z,8.25
2022-11-28T03:18:06.890Z,8.85
2022-11-28T03:18:50.132Z,9.52
2022-11-28T03:19:18.498Z,8.77
2022-11-28T03:19:39.337Z,8.95
2022-11-28T03:19:59.948Z,8.52
2022-11-28T03:20:24.354Z,9.10
2022-11-28T03:20:55.926Z,8.65
2022-11-28T03:21:23.394Z,9.13
2022-11-28T03:21:53.829Z,8.10
2022-11-28T03:22:11.536Z,9.35
2022-11-28T03:22:38.237Z,9.40
2022-11-28T03:22:59.035Z,9.10
2022-11-28T03:23:21.017Z,8.75
2022-11-28T03:24:02.926Z,8.95
2022-11-28T03:24:23.709Z,8.77
2022-11-28T03:24:45.791Z,10.05
2022-11-28T03:25:32.966Z,9.90
2022-11-28T03:25:56.067Z,9.38
2022-11-28T03:26:12.385Z,8.57
2022-11-28T03:26:38.421Z,8.80
2022-11-28T03:27:02.870Z,8.52
2022-11-28T03:27:42.289Z,9.43
2022-11-28T03:28:03.622Z,8.93
2022-11-28T03:28:25.106Z,9.20
2022-11-28T03:28:57.565Z,9.52
2022-11-28T03:29:15.204Z,10.25
2022-11-28T03:29:49.011Z,9.48
2022-11-28T03:30:13.467Z,9.27
2022-11-28T03:30:36.546Z,11.63
2022-11-28T03:30:55.082Z,11.00
2022-11-28T03:31:13.884Z,9.13
2022-11-28T03:31:39.798Z,9.43
2022-11-28T03:32:00.550Z,8.55
2022-11-28T03:32:24.560Z,9.70
2022-11-28T03:32:39.465Z,9.43
2022-11-28T03:32:55.700Z,8.88
2022-11-28T03:33:09.258Z,8.68
2022-11-28T03:33:24.190Z,9.98
2022-11-28T03:33:45.038Z,11.00
2022-11-28T03:33:59.874Z,9.52
2022-11-28T03:34:17.672Z,9.15
2022-11-28T03:34:35.465Z,9.40
2022-11-28T03:34:51.466Z,9.15
2022-11-28T03:35:10.492Z,8.50
2022-11-28T03:35:27.491Z,9.35
2022-11-28T03:35:50.303Z,10.25
2022-11-28T03:36:17.860Z,9.27
2022-11-28T03:36:40.789Z,8.95
2022-11-28T03:36:58.010Z,8.52
2022-11-28T03:37:20.787Z,9.32
2022-11-28T03:37:37.083Z,10.13
2022-11-28T03:37:56.002Z,9.38
2022-11-28T03:38:13.334Z,9.32
2022-11-28T03:38:31.997Z,10.18